
Distance (Route):
Temperature : -2.9°C
Humidity : 14.7%
Pressure : 0hPa| Receiver | Date | Latitude | Longitude | Direction | Speed | Altitude | Climb | Temperature | Humidity | Pressure | Voltage | Killtimer | Uptime | BKT | XDATA |
|---|---|---|---|---|---|---|---|---|---|---|---|---|---|---|---|
| LZ4TU-5 | 2026-09-02 01:02:12 | 44.76390 | 21.31910 | 88° | 40km/h | 4659m | -16.7m/s | -2.9°C | 14.7% | 0hPa | 5.3V | 00:00:00 | 00:00:00 | 00:00:00 | |
| LZ4TU-5 | 2026-09-02 01:02:07 | 44.76391 | 21.31838 | 90° | 40km/h | 4744m | -16.8m/s | -3.3°C | 13.6% | 0hPa | 5.3V | 00:00:00 | 00:00:00 | 00:00:00 | |
| LZ4TU-5 | 2026-09-02 01:02:03 | 44.76392 | 21.31778 | 91° | 42km/h | 4810m | -16.8m/s | -3.7°C | 13.3% | 0hPa | 5.3V | 00:00:00 | 00:00:00 | 00:00:00 | |
| LZ4TU-5 | 2026-09-02 01:01:59 | 44.76393 | 21.31713 | 91° | 44km/h | 4860m | -16.7m/s | -4.3°C | 13.2% | 0hPa | 5.3V | 00:00:00 | 00:00:00 | 00:00:00 | |
| LZ4TU-5 | 2026-09-02 01:01:55 | 44.76393 | 21.31650 | 93° | 46km/h | 4931m | -16.8m/s | -4.7°C | 13.1% | 0hPa | 5.3V | 00:00:00 | 00:00:00 | 00:00:00 | |
| LZ4TU-5 | 2026-09-02 01:01:51 | 44.76393 | 21.31584 | 93° | 49km/h | 5001m | -16.9m/s | -5.1°C | 0% | 0hPa | 5.3V | 00:00:00 | 00:00:00 | 00:00:00 | |
| LZ4TU-5 | 2026-09-02 01:01:46 | 44.76395 | 21.31497 | 94° | 49km/h | 5091m | -17.0m/s | -5.2°C | 7.3% | 0hPa | 5.3V | 00:00:00 | 00:00:00 | 00:00:00 | |
| LZ4TU-5 | 2026-09-02 00:59:23 | 44.76704 | 21.28516 | 103° | 64km/h | 7768m | -20.1m/s | -23.7°C | 7.0% | 0hPa | 5.3V | 00:00:00 | 00:00:00 | 00:00:00 | |
| LZ4TU-5 | 2026-09-02 00:59:19 | 44.76719 | 21.28403 | 100° | 64km/h | 7865m | -20.3m/s | -23.7°C | 6.4% | 0hPa | 5.3V | 00:00:00 | 00:00:00 | 00:00:00 | |
| LZ4TU-5 | 2026-09-02 00:57:20 | 44.76835 | 21.25633 | 91° | 77km/h | 10420m | -23.2m/s | -44.5°C | 31.8% | 0hPa | 5.3V | 00:00:00 | 00:00:00 | 00:00:00 | |
| LZ4TU-5 | 2026-09-02 00:57:15 | 44.76834 | 21.25497 | 92° | 82km/h | 10543m | -23.4m/s | -45.5°C | 36.2% | 0hPa | 5.3V | 00:00:00 | 00:00:00 | 00:00:00 | |
| LZ4TU-5 | 2026-09-02 00:54:47 | 44.76516 | 21.19609 | 82° | 106km/h | 14482m | -30.6m/s | -58.1°C | 1.8% | 0hPa | 5.3V | 00:00:00 | 00:00:00 | 00:00:00 | |
| LZ4TU-5 | 2026-09-02 00:54:42 | 44.76496 | 21.19425 | 83° | 102km/h | 14640m | -31.0m/s | -58.0°C | 1.5% | 0hPa | 5.3V | 00:00:00 | 00:00:00 | 00:00:00 | |
| LZ4TU-5 | 2026-09-02 00:52:38 | 44.76401 | 21.17120 | 103° | 18km/h | 19166m | -44.5m/s | -55.7°C | 0.0% | 0hPa | 5.3V | 00:00:00 | 00:00:00 | 00:00:00 | |
| LZ4TU-5 | 2026-09-02 00:52:34 | 44.76403 | 21.17099 | 89° | 15km/h | 19348m | -45.2m/s | -55.5°C | 0.0% | 0hPa | 5.3V | 00:00:00 | 00:00:00 | 00:00:00 | |
| LZ4TU-5 | 2026-09-02 00:52:28 | 44.76398 | 21.17065 | 68° | 18km/h | 19618m | -46.1m/s | -55.9°C | 0.0% | 0hPa | 5.3V | 00:00:00 | 00:00:00 | 00:00:00 | |
| LZ4TU-5 | 2026-09-02 00:52:24 | 44.76389 | 21.17047 | 42° | 20km/h | 19796m | -46.4m/s | -55.1°C | 0.0% | 0hPa | 5.3V | 00:00:00 | 00:00:00 | 00:00:00 | |
| LZ4TU-5 | 2026-09-02 00:50:23 | 44.76329 | 21.16806 | 51° | 5km/h | 26872m | -76.5m/s | -45.8°C | 0.3% | 0hPa | 5.3V | 00:00:00 | 00:00:00 | 00:00:00 | |
| LZ4TU-5 | 2026-09-02 00:50:18 | 44.76324 | 21.16799 | 43° | 5km/h | 27256m | -77.0m/s | -46.2°C | 0.6% | 0hPa | 5.3V | 00:00:00 | 00:00:00 | 00:00:00 | |
| OE3JTB-15 | 2026-09-02 00:48:44 | 44.76379 | 21.17129 | 263° | 29km/h | 33190m | 5.8m/s | -39.9°C | 0% | 0hPa | 5.3V | 00:00:00 | 00:00:00 | 00:00:00 | |
| LZ4TU-5 | 2026-09-02 00:48:15 | 44.76462 | 21.17233 | 194° | 37km/h | 33038m | 9.7m/s | -39.9°C | 0.0% | 0hPa | 5.3V | 00:00:00 | 00:00:00 | 00:00:00 | |
| LZ4TU-5 | 2026-09-02 00:48:11 | 44.76504 | 21.17254 | 178° | 18km/h | 33004m | 8.6m/s | -40.1°C | 0.1% | 0hPa | 5.3V | 00:00:00 | 00:00:00 | 00:00:00 | |
| OE3JTB-15 | 2026-09-02 00:48:02 | 44.76542 | 21.17278 | 221° | 22km/h | 32910m | 6.1m/s | -40.1°C | 0% | 0hPa | 5.3V | 00:00:00 | 00:00:00 | 00:00:00 | |
| OE3JTB-15 | 2026-09-02 00:47:29 | 44.76544 | 21.17283 | 190° | 22km/h | 32686m | 6.4m/s | -40.2°C | 0% | 0hPa | 5.3V | 00:00:00 | 00:00:00 | 00:00:00 | |
| OE3JTB-15 | 2026-09-02 00:46:58 | 44.76606 | 21.17382 | 53° | 26km/h | 32468m | 7.6m/s | -40.5°C | 0% | 0hPa | 5.3V | 00:00:00 | 00:00:00 | 00:00:00 | |
| LZ4TU-5 | 2026-09-02 00:46:37 | 44.76640 | 21.17360 | 243° | 44km/h | 32333m | 6.0m/s | -39.9°C | 0.1% | 0hPa | 5.3V | 00:00:00 | 00:00:00 | 00:00:00 | |
| LZ4TU-5 | 2026-09-02 00:46:32 | 44.76634 | 21.17373 | 120° | 9km/h | 32305m | 7.6m/s | -39.6°C | 0.1% | 0hPa | 5.3V | 00:00:00 | 00:00:00 | 00:00:00 | |
| OE3JTB-15 | 2026-09-02 00:46:28 | 44.76669 | 21.17417 | 269° | 26km/h | 32248m | 5.5m/s | -39.4°C | 0% | 0hPa | 5.3V | 00:00:00 | 00:00:00 | 00:00:00 | |
| OE3JTB-15 | 2026-09-02 00:45:59 | 44.76661 | 21.17504 | 131° | 20km/h | 32062m | 5.8m/s | -39.2°C | 0% | 0hPa | 5.3V | 00:00:00 | 00:00:00 | 00:00:00 | |
| OE3JTB-15 | 2026-09-02 00:45:27 | 44.76569 | 21.17612 | 313° | 27km/h | 31874m | 8.6m/s | -39.4°C | 0% | 0hPa | 5.4V | 00:00:00 | 00:00:00 | 00:00:00 | |
| OE3JTB-15 | 2026-09-02 00:43:57 | 44.76481 | 21.17819 | 297° | 18km/h | 31218m | 7.8m/s | -41.8°C | 0% | 0hPa | 5.4V | 00:00:00 | 00:00:00 | 00:00:00 | |
| OE3JTB-15 | 2026-09-02 00:40:42 | 44.76208 | 21.17810 | 159° | 13km/h | 29867m | 6.6m/s | -44.4°C | 0% | 0hPa | 5.4V | 00:00:00 | 00:00:00 | 00:00:00 | |
| OE3JTB-15 | 2026-09-02 00:40:10 | 44.76171 | 21.17766 | 64° | 13km/h | 29640m | 5.5m/s | -44.3°C | 0% | 0hPa | 5.4V | 00:00:00 | 00:00:00 | 00:00:00 | |
| LZ4TU-5 | 2026-09-02 00:39:58 | 44.76163 | 21.17750 | 2° | 24km/h | 29577m | 7.9m/s | -45.0°C | 0.0% | 0hPa | 5.4V | 00:00:00 | 00:00:00 | 00:00:00 | |
| LZ4TU-5 | 2026-09-02 00:39:54 | 44.76154 | 21.17723 | 102° | 18km/h | 29546m | 7.9m/s | -45.2°C | 0.0% | 0hPa | 5.4V | 00:00:00 | 00:00:00 | 00:00:00 | |
| OE3JTB-15 | 2026-09-02 00:38:24 | 44.75857 | 21.17749 | 328° | 24km/h | 28925m | 7.2m/s | -46.1°C | 0% | 0hPa | 5.4V | 00:00:00 | 00:00:00 | 00:00:00 | |
| LZ4TU-5 | 2026-09-02 00:38:21 | 44.75857 | 21.17749 | 329° | 13km/h | 28925m | 7.3m/s | -46.6°C | 0.0% | 0hPa | 5.4V | 00:00:00 | 00:00:00 | 00:00:00 | |
| LZ4TU-5 | 2026-09-02 00:38:16 | 44.75840 | 21.17760 | 52° | 22km/h | 28893m | 7.3m/s | -46.5°C | 0.0% | 0hPa | 5.4V | 00:00:00 | 00:00:00 | 00:00:00 | |
| OE3JTB-15 | 2026-09-02 00:37:45 | 44.75673 | 21.17767 | 354° | 16km/h | 28669m | 4.4m/s | -46.4°C | 0% | 0hPa | 5.4V | 00:00:00 | 00:00:00 | 00:00:00 | |
| OE3JTB-15 | 2026-09-02 00:37:15 | 44.75549 | 21.17793 | 4° | 11km/h | 28472m | 6.4m/s | -45.8°C | 0% | 0hPa | 5.5V | 00:00:00 | 00:00:00 | 00:00:00 | |
| OE3JTB-15 | 2026-09-02 00:36:46 | 44.75527 | 21.17855 | 18° | 13km/h | 28270m | 7.0m/s | -46.7°C | 0% | 0hPa | 5.5V | 00:00:00 | 00:00:00 | 00:00:00 | |
| LZ4TU-5 | 2026-09-02 00:36:29 | 44.75530 | 21.17882 | 0° | 0km/h | 28174m | 8.0m/s | -47.2°C | 0.0% | 0hPa | 5.5V | 00:00:00 | 00:00:00 | 00:00:00 | |
| LZ4TU-5 | 2026-09-02 00:36:24 | 44.75527 | 21.17897 | 253° | 27km/h | 28138m | 7.5m/s | -47.1°C | 0.0% | 0hPa | 5.5V | 00:00:00 | 00:00:00 | 00:00:00 | |
| LZ4TU-5 | 2026-09-02 00:36:21 | 44.75531 | 21.17925 | 328° | 15km/h | 28113m | 7.6m/s | -47.2°C | 0.0% | 0hPa | 5.5V | 00:00:00 | 00:00:00 | 00:00:00 | |
| LZ4TU-5 | 2026-09-02 00:36:16 | 44.75517 | 21.17923 | 0° | 0km/h | 28085m | 6.5m/s | -47.4°C | 0.0% | 0hPa | 5.5V | 00:00:00 | 00:00:00 | 00:00:00 | |
| OE3JTB-15 | 2026-09-02 00:35:47 | 44.75508 | 21.17901 | 55° | 16km/h | 27861m | 8.9m/s | -47.3°C | 0% | 0hPa | 5.5V | 00:00:00 | 00:00:00 | 00:00:00 | |
| OE3JTB-15 | 2026-09-02 00:35:18 | 44.75510 | 21.17802 | 164° | 15km/h | 27667m | 7.6m/s | -47.8°C | 0% | 0hPa | 5.5V | 00:00:00 | 00:00:00 | 00:00:00 | |
| LZ4TU-5 | 2026-09-02 00:34:29 | 44.75483 | 21.17746 | 49° | 4km/h | 27340m | 5.8m/s | -48.6°C | 0.1% | 0hPa | 5.5V | 00:00:00 | 00:00:00 | 00:00:00 | |
| LZ4TU-5 | 2026-09-02 00:34:24 | 44.75477 | 21.17733 | 19° | 9km/h | 27303m | 8.0m/s | -48.8°C | 0.1% | 0hPa | 5.5V | 00:00:00 | 00:00:00 | 00:00:00 | |
| LZ4TU-5 | 2026-09-02 00:32:50 | 44.75435 | 21.17596 | 2° | 16km/h | 26695m | 5.2m/s | -48.6°C | 0.0% | 0hPa | 5.5V | 00:00:00 | 00:00:00 | 00:00:00 | |
| LZ4TU-5 | 2026-09-02 00:32:45 | 44.75414 | 21.17606 | 14° | 20km/h | 26661m | 8.4m/s | -49.0°C | 0.0% | 0hPa | 5.5V | 00:00:00 | 00:00:00 | 00:00:00 | |
| LZ4TU-5 | 2026-09-02 00:31:10 | 44.75200 | 21.17861 | 221° | 16km/h | 26059m | 7.3m/s | -49.6°C | 0.0% | 0hPa | 5.5V | 00:00:00 | 00:00:00 | 00:00:00 | |
| LZ4TU-5 | 2026-09-02 00:31:06 | 44.75216 | 21.17854 | 106° | 22km/h | 26034m | 6.8m/s | -49.5°C | 0.0% | 0hPa | 5.5V | 00:00:00 | 00:00:00 | 00:00:00 | |
| OE3JTB-15 | 2026-09-02 00:30:40 | 44.75251 | 21.17776 | 272° | 24km/h | 25842m | 7.5m/s | -49.4°C | 0% | 0hPa | 5.5V | 00:00:00 | 00:00:00 | 00:00:00 | |
| OE3JTB-15 | 2026-09-02 00:29:52 | 44.75232 | 21.17972 | 239° | 24km/h | 25539m | 7.6m/s | -49.8°C | 0% | 0hPa | 5.5V | 00:00:00 | 00:00:00 | 00:00:00 | |
| LZ4TU-5 | 2026-09-02 00:29:37 | 44.75255 | 21.18053 | 214° | 27km/h | 25459m | 6.6m/s | -50.4°C | 0.2% | 0hPa | 5.5V | 00:00:00 | 00:00:00 | 00:00:00 | |
| LZ4TU-5 | 2026-09-02 00:29:33 | 44.75268 | 21.18072 | 253° | 18km/h | 25433m | 8.0m/s | -50.5°C | 0.2% | 0hPa | 5.5V | 00:00:00 | 00:00:00 | 00:00:00 | |
| OE3JTB-15 | 2026-09-02 00:29:23 | 44.75322 | 21.18126 | 180° | 22km/h | 25351m | 5.7m/s | -49.9°C | 0% | 0hPa | 5.5V | 00:00:00 | 00:00:00 | 00:00:00 | |
| OE3JTB-15 | 2026-09-02 00:28:46 | 44.75448 | 21.18081 | 119° | 13km/h | 25108m | 7.1m/s | -49.8°C | 0% | 0hPa | 5.6V | 00:00:00 | 00:00:00 | 00:00:00 | |
| LZ4TU-5 | 2026-09-02 00:27:56 | 44.75512 | 21.18026 | 244° | 4km/h | 24818m | 7.2m/s | -51.3°C | 0.2% | 0hPa | 5.6V | 00:00:00 | 00:00:00 | 00:00:00 | |
| LZ4TU-5 | 2026-09-02 00:27:52 | 44.75508 | 21.18018 | 77° | 18km/h | 24793m | 7.0m/s | -51.3°C | 0% | 0hPa | 5.6V | 00:00:00 | 00:00:00 | 00:00:00 | |
| OE3JTB-15 | 2026-09-02 00:27:46 | 44.75518 | 21.18019 | 124° | 13km/h | 24739m | 7.1m/s | -50.7°C | 0% | 0hPa | 5.6V | 00:00:00 | 00:00:00 | 00:00:00 | |
| LZ4TU-5 | 2026-09-02 00:26:12 | 44.75761 | 21.17805 | 93° | 9km/h | 24167m | 8.1m/s | -53.3°C | 0.3% | 0hPa | 5.6V | 00:00:00 | 00:00:00 | 00:00:00 | |
| LZ4TU-5 | 2026-09-02 00:26:07 | 44.75765 | 21.17806 | 237° | 7km/h | 24137m | 5.3m/s | -53.2°C | 0.3% | 0hPa | 5.6V | 00:00:00 | 00:00:00 | 00:00:00 | |
| OE3JTB-15 | 2026-09-02 00:25:44 | 44.75799 | 21.17723 | 62° | 13km/h | 23972m | 6.1m/s | -52.8°C | 0% | 0hPa | 5.6V | 00:00:00 | 00:00:00 | 00:00:00 | |
| LZ4TU-5 | 2026-09-02 00:24:34 | 44.75838 | 21.17775 | 223° | 16km/h | 23544m | 8.1m/s | -53.4°C | 0.5% | 0hPa | 5.6V | 00:00:00 | 00:00:00 | 00:00:00 | |
| LZ4TU-5 | 2026-09-02 00:24:29 | 44.75856 | 21.17764 | 135° | 26km/h | 23513m | 5.4m/s | -53.2°C | 0.5% | 0hPa | 5.6V | 00:00:00 | 00:00:00 | 00:00:00 | |
| OE3JTB-15 | 2026-09-02 00:24:20 | 44.75868 | 21.17767 | 125° | 13km/h | 23430m | 5.8m/s | -52.1°C | 0% | 0hPa | 5.6V | 00:00:00 | 00:00:00 | 00:00:00 | |
| OE3JTB-15 | 2026-09-02 00:23:51 | 44.75820 | 21.17850 | 292° | 18km/h | 23250m | 4.0m/s | -51.9°C | 0% | 0hPa | 5.6V | 00:00:00 | 00:00:00 | 00:00:00 | |
| OE3JTB-15 | 2026-09-02 00:23:22 | 44.75787 | 21.17977 | 161° | 15km/h | 23076m | 4.1m/s | -51.8°C | 0% | 0hPa | 5.6V | 00:00:00 | 00:00:00 | 00:00:00 | |
| LZ4TU-5 | 2026-09-02 00:22:55 | 44.75803 | 21.18027 | 15° | 11km/h | 22931m | 6.6m/s | -53.0°C | 0.4% | 0hPa | 5.6V | 00:00:00 | 00:00:00 | 00:00:00 | |
| LZ4TU-5 | 2026-09-02 00:22:50 | 44.75805 | 21.18054 | 217° | 27km/h | 22902m | 5.6m/s | -53.3°C | 0.4% | 0hPa | 5.6V | 00:00:00 | 00:00:00 | 00:00:00 | |
| LZ4TU-5 | 2026-09-02 00:21:15 | 44.75945 | 21.17808 | 158° | 13km/h | 22347m | 5.8m/s | -53.9°C | 0.5% | 0hPa | 5.6V | 00:00:00 | 00:00:00 | 00:00:00 | |
| LZ4TU-5 | 2026-09-02 00:21:10 | 44.75949 | 21.17811 | 8° | 11km/h | 22316m | 7.0m/s | -53.8°C | 0.5% | 0hPa | 5.6V | 00:00:00 | 00:00:00 | 00:00:00 | |
| LZ4TU-5 | 2026-09-02 00:19:34 | 44.76080 | 21.17251 | 79° | 31km/h | 21729m | 7.4m/s | -55.4°C | 0.7% | 0hPa | 5.6V | 00:00:00 | 00:00:00 | 00:00:00 | |
| LZ4TU-5 | 2026-09-02 00:19:29 | 44.76077 | 21.17192 | 86° | 44km/h | 21700m | 4.8m/s | -55.4°C | 0.7% | 0hPa | 5.6V | 00:00:00 | 00:00:00 | 00:00:00 | |
| OE3JTB-15 | 2026-09-02 00:18:36 | 44.75801 | 21.16703 | 35° | 20km/h | 21352m | 5.5m/s | -54.6°C | 0% | 0hPa | 5.6V | 00:00:00 | 00:00:00 | 00:00:00 | |
| LZ4TU-5 | 2026-09-02 00:17:55 | 44.75660 | 21.16569 | 23° | 13km/h | 21131m | 5.1m/s | -55.2°C | 0.9% | 0hPa | 5.6V | 00:00:00 | 00:00:00 | 00:00:00 | |
| LZ4TU-5 | 2026-09-02 00:17:51 | 44.75653 | 21.16552 | 67° | 13km/h | 21109m | 4.8m/s | -55.1°C | 0.8% | 0hPa | 5.6V | 00:00:00 | 00:00:00 | 00:00:00 | |
| OE3JTB-15 | 2026-09-02 00:17:29 | 44.75592 | 21.16519 | 11° | 18km/h | 20962m | 6.0m/s | -54.0°C | 0% | 0hPa | 5.6V | 00:00:00 | 00:00:00 | 00:00:00 | |
| OE3JTB-15 | 2026-09-02 00:16:52 | 44.75436 | 21.16416 | 17° | 18km/h | 20743m | 5.1m/s | -55.4°C | 0% | 0hPa | 5.6V | 00:00:00 | 00:00:00 | 00:00:00 | |
| LZ4TU-5 | 2026-09-02 00:16:17 | 44.75256 | 21.16428 | 329° | 9km/h | 20564m | 6.5m/s | -56.0°C | 0.9% | 0hPa | 5.6V | 00:00:00 | 00:00:00 | 00:00:00 | |
| LZ4TU-5 | 2026-09-02 00:16:12 | 44.75234 | 21.16448 | 338° | 26km/h | 20533m | 6.1m/s | -56.1°C | 0.9% | 0hPa | 5.6V | 00:00:00 | 00:00:00 | 00:00:00 | |
| OE3JTB-15 | 2026-09-02 00:16:00 | 44.75199 | 21.16462 | 236° | 9km/h | 20438m | 5.7m/s | -54.9°C | 0% | 0hPa | 5.6V | 00:00:00 | 00:00:00 | 00:00:00 | |
| OE3JTB-15 | 2026-09-02 00:15:30 | 44.75184 | 21.16387 | 95° | 16km/h | 20260m | 6.6m/s | -55.0°C | 0% | 0hPa | 5.6V | 00:00:00 | 00:00:00 | 00:00:00 | |
| OE3JTB-15 | 2026-09-02 00:15:00 | 44.75101 | 21.16238 | 46° | 20km/h | 20080m | 5.0m/s | -55.1°C | 0% | 0hPa | 5.6V | 00:00:00 | 00:00:00 | 00:00:00 | |
| LZ4TU-5 | 2026-09-02 00:14:29 | 44.75016 | 21.16100 | 63° | 22km/h | 19919m | 5.4m/s | -56.0°C | 0.9% | 0hPa | 5.7V | 00:00:00 | 00:00:00 | 00:00:00 | |
| LZ4TU-5 | 2026-09-02 00:14:24 | 44.75011 | 21.16062 | 49° | 13km/h | 19889m | 5.7m/s | -56.0°C | 0.9% | 0hPa | 5.7V | 00:00:00 | 00:00:00 | 00:00:00 | |
| OE3JTB-15 | 2026-09-02 00:14:02 | 44.74901 | 21.16001 | 16° | 13km/h | 19741m | 6.2m/s | -55.3°C | 0% | 0hPa | 5.7V | 00:00:00 | 00:00:00 | 00:00:00 | |
| OE3JTB-15 | 2026-09-02 00:13:33 | 44.74843 | 21.15890 | 87° | 16km/h | 19568m | 3.6m/s | -55.8°C | 0% | 0hPa | 5.7V | 00:00:00 | 00:00:00 | 00:00:00 | |
| OE3JTB-15 | 2026-09-02 00:13:01 | 44.74842 | 21.15724 | 95° | 15km/h | 19384m | 5.3m/s | -56.0°C | 0% | 0hPa | 5.7V | 00:00:00 | 00:00:00 | 00:00:00 | |
| LZ4TU-5 | 2026-09-02 00:12:35 | 44.74860 | 21.15614 | 111° | 13km/h | 19248m | 5.8m/s | -56.4°C | 1.3% | 0hPa | 5.7V | 00:00:00 | 00:00:00 | 00:00:00 | |
| OE3JTB-15 | 2026-09-02 00:12:30 | 44.74875 | 21.15575 | 130° | 26km/h | 19202m | 5.7m/s | -55.5°C | 0% | 0hPa | 5.7V | 00:00:00 | 00:00:00 | 00:00:00 | |
| OE3JTB-15 | 2026-09-02 00:11:54 | 44.74940 | 21.15290 | 90° | 31km/h | 18984m | 4.5m/s | -55.3°C | 0% | 0hPa | 5.7V | 00:00:00 | 00:00:00 | 00:00:00 | |
| OE3JTB-15 | 2026-09-02 00:11:15 | 44.74810 | 21.14947 | 31° | 20km/h | 18756m | 6.6m/s | -55.5°C | 0% | 0hPa | 5.7V | 00:00:00 | 00:00:00 | 00:00:00 | |
| LZ4TU-5 | 2026-09-02 00:10:41 | 44.74730 | 21.14810 | 89° | 16km/h | 18581m | 5.5m/s | -55.6°C | 1.5% | 0hPa | 5.7V | 00:00:00 | 00:00:00 | 00:00:00 | |
| LZ4TU-5 | 2026-09-02 00:10:36 | 44.74725 | 21.14799 | 360° | 5km/h | 18552m | 6.6m/s | -56.0°C | 1.6% | 0hPa | 5.7V | 00:00:00 | 00:00:00 | 00:00:00 | |
| OE3JTB-15 | 2026-09-02 00:10:14 | 44.74770 | 21.14680 | 125° | 40km/h | 18414m | 3.7m/s | -55.5°C | 0% | 0hPa | 5.7V | 00:00:00 | 00:00:00 | 00:00:00 | |
| OE3JTB-15 | 2026-09-02 00:09:44 | 44.74894 | 21.14305 | 112° | 46km/h | 18229m | 4.7m/s | -55.3°C | 0% | 0hPa | 5.7V | 00:00:00 | 00:00:00 | 00:00:00 | |
| OE3JTB-15 | 2026-09-02 00:09:13 | 44.74918 | 21.13802 | 82° | 37km/h | 18051m | 6.4m/s | -56.7°C | 0% | 0hPa | 5.7V | 00:00:00 | 00:00:00 | 00:00:00 | |
| LZ4TU-5 | 2026-09-02 00:08:53 | 44.74912 | 21.13594 | 95° | 33km/h | 17956m | 6.6m/s | -57.5°C | 2.2% | 0hPa | 5.7V | 00:00:00 | 00:00:00 | 00:00:00 | |
| LZ4TU-5 | 2026-09-02 00:08:48 | 44.74908 | 21.13539 | 95° | 31km/h | 17930m | 5.6m/s | -57.3°C | 2.2% | 0hPa | 5.7V | 00:00:00 | 00:00:00 | 00:00:00 | |
| OE3JTB-15 | 2026-09-02 00:08:44 | 44.74911 | 21.13460 | 87° | 37km/h | 17890m | 5.5m/s | -56.2°C | 0% | 0hPa | 5.7V | 00:00:00 | 00:00:00 | 00:00:00 | |
| OE3JTB-15 | 2026-09-02 00:08:05 | 44.74921 | 21.13020 | 90° | 37km/h | 17690m | 5.4m/s | -55.9°C | 0% | 0hPa | 5.7V | 00:00:00 | 00:00:00 | 00:00:00 | |
| LZ4TU-5 | 2026-09-02 00:06:59 | 44.74980 | 21.11990 | 102° | 47km/h | 17330m | 5.8m/s | -57.3°C | 2.7% | 0hPa | 0V | 00:00:00 | 00:00:00 | 00:00:00 | |
| LZ4TU-5 | 2026-09-02 00:06:54 | 44.74985 | 21.11900 | 87° | 53km/h | 17303m | 5.3m/s | -57.6°C | 2.7% | 0hPa | 0V | 00:00:00 | 00:00:00 | 00:00:00 | |
| LZ4TU-5 | 2026-09-02 00:05:15 | 44.74760 | 21.09874 | 63° | 42km/h | 16761m | 5.5m/s | -59.5°C | 3.6% | 0hPa | 0V | 00:00:00 | 00:00:00 | 00:00:00 | |
| LZ4TU-5 | 2026-09-02 00:05:10 | 44.74738 | 21.09795 | 69° | 51km/h | 16732m | 5.0m/s | -59.3°C | 3.7% | 0hPa | 0V | 00:00:00 | 00:00:00 | 00:00:00 | |
| LZ4TU-5 | 2026-09-02 00:03:33 | 44.74668 | 21.08368 | 97° | 71km/h | 16171m | 5.4m/s | -58.7°C | 4.8% | 0hPa | 0V | 00:00:00 | 00:00:00 | 00:00:00 | |
| LZ4TU-5 | 2026-09-02 00:03:30 | 44.74677 | 21.08255 | 89° | 58km/h | 16143m | 5.5m/s | -58.8°C | 4.9% | 0hPa | 0V | 00:00:00 | 00:00:00 | 00:00:00 | |
| LZ4TU-5 | 2026-09-02 00:01:42 | 44.74715 | 21.05556 | 82° | 77km/h | 15528m | 5.6m/s | -59.5°C | 5.5% | 0hPa | 0V | 00:00:00 | 00:00:00 | 00:00:00 | |
| LZ4TU-5 | 2026-09-02 00:01:36 | 44.74700 | 21.05412 | 90° | 84km/h | 15503m | 4.9m/s | -59.5°C | 5.5% | 0hPa | 0V | 00:00:00 | 00:00:00 | 00:00:00 | |
| LZ4TU-5 | 2026-09-01 23:58:40 | 44.74271 | 21.00347 | 85° | 97km/h | 14610m | 4.1m/s | -58.3°C | 8.8% | 0hPa | 0V | 00:00:00 | 00:00:00 | 00:00:00 | |
| LZ4TU-5 | 2026-09-01 23:58:35 | 44.74247 | 21.00170 | 77° | 102km/h | 14584m | 4.2m/s | -58.3°C | 8.9% | 0hPa | 0V | 00:00:00 | 00:00:00 | 00:00:00 | |
| LZ4TU-5 | 2026-09-01 23:56:57 | 44.73862 | 20.96629 | 82° | 97km/h | 14042m | 5.8m/s | -58.2°C | 14.3% | 0hPa | 0V | 00:00:00 | 00:00:00 | 00:00:00 | |
| LZ4TU-5 | 2026-09-01 23:55:13 | 44.73397 | 20.92561 | 75° | 115km/h | 13521m | 4.0m/s | -58.7°C | 20.3% | 0hPa | 0V | 00:00:00 | 00:00:00 | 00:00:00 | |
| LZ4TU-5 | 2026-09-01 23:55:08 | 44.73375 | 20.92372 | 85° | 113km/h | 13495m | 4.6m/s | -58.8°C | 20.6% | 0hPa | 0V | 00:00:00 | 00:00:00 | 00:00:00 | |
| LZ4TU-5 | 2026-09-01 23:53:28 | 44.72939 | 20.88115 | 85° | 124km/h | 12967m | 5.1m/s | -58.5°C | 23.2% | 0hPa | 0V | 00:00:00 | 00:00:00 | 00:00:00 | |
| LZ4TU-5 | 2026-09-01 23:53:24 | 44.72923 | 20.87949 | 80° | 111km/h | 12946m | 5.0m/s | -58.4°C | 23.5% | 0hPa | 0V | 00:00:00 | 00:00:00 | 00:00:00 | |
| LZ4TU-5 | 2026-09-01 23:51:45 | 44.72583 | 20.83633 | 83° | 120km/h | 12417m | 5.8m/s | -56.0°C | 23.8% | 0hPa | 0V | 00:00:00 | 00:00:00 | 00:00:00 | |
| LZ4TU-5 | 2026-09-01 23:51:40 | 44.72549 | 20.83416 | 81° | 139km/h | 12389m | 5.9m/s | -55.9°C | 23.6% | 0hPa | 0V | 00:00:00 | 00:00:00 | 00:00:00 | |
| LZ4TU-5 | 2026-09-01 23:49:52 | 44.72242 | 20.78636 | 91° | 119km/h | 11773m | 5.9m/s | -53.0°C | 28.7% | 0hPa | 0V | 00:00:00 | 00:00:00 | 00:00:00 | |
| LZ4TU-5 | 2026-09-01 23:49:47 | 44.72242 | 20.78415 | 91° | 130km/h | 11746m | 4.9m/s | -52.9°C | 29.7% | 0hPa | 0V | 00:00:00 | 00:00:00 | 00:00:00 | |
| LZ4TU-5 | 2026-09-01 23:49:42 | 44.72230 | 20.78204 | 87° | 110km/h | 11719m | 5.2m/s | -52.9°C | 30.7% | 0hPa | 0V | 00:00:00 | 00:00:00 | 00:00:00 | |
| LZ4TU-5 | 2026-09-01 23:48:05 | 44.72221 | 20.74417 | 90° | 104km/h | 11179m | 4.1m/s | -49.7°C | 33.7% | 0hPa | 0V | 00:00:00 | 00:00:00 | 00:00:00 | |
| LZ4TU-5 | 2026-09-01 23:48:00 | 44.72233 | 20.74212 | 94° | 115km/h | 11154m | 4.6m/s | -49.6°C | 30.6% | 0hPa | 0V | 00:00:00 | 00:00:00 | 00:00:00 | |
| LZ4TU-5 | 2026-09-01 23:46:21 | 44.72317 | 20.70563 | 94° | 80km/h | 10590m | 4.0m/s | -46.1°C | 20.8% | 0hPa | 0V | 00:00:00 | 00:00:00 | 00:00:00 | |
| LZ4TU-5 | 2026-09-01 23:46:17 | 44.72325 | 20.70423 | 95° | 111km/h | 10568m | 5.1m/s | -46.0°C | 20.0% | 0hPa | 0V | 00:00:00 | 00:00:00 | 00:00:00 | |
| LZ4TU-5 | 2026-09-01 23:44:36 | 44.72257 | 20.67627 | 88° | 53km/h | 9994m | 5.9m/s | -41.4°C | 22.1% | 0hPa | 0V | 00:00:00 | 00:00:00 | 00:00:00 | |
| LZ4TU-5 | 2026-09-01 23:44:32 | 44.72249 | 20.67529 | 86° | 84km/h | 9967m | 8.2m/s | -41.2°C | 22.2% | 0hPa | 0V | 00:00:00 | 00:00:00 | 00:00:00 | |
| LZ4TU-5 | 2026-09-01 23:42:53 | 44.72308 | 20.64995 | 83° | 77km/h | 9421m | 5.6m/s | -36.4°C | 12.0% | 0hPa | 0V | 00:00:00 | 00:00:00 | 00:00:00 | |
| LZ4TU-5 | 2026-09-01 23:42:48 | 44.72325 | 20.64854 | 110° | 68km/h | 9394m | 4.3m/s | -36.1°C | 12.0% | 0hPa | 0V | 00:00:00 | 00:00:00 | 00:00:00 | |
| LZ4TU-5 | 2026-09-01 23:41:26 | 44.72451 | 20.62832 | 90° | 58km/h | 8928m | 5.2m/s | -32.3°C | 17.4% | 0hPa | 0V | 00:00:00 | 00:00:00 | 00:00:00 | |
| LZ4TU-5 | 2026-09-01 23:41:20 | 44.72459 | 20.62711 | 103° | 64km/h | 8906m | 4.1m/s | -32.1°C | 16.1% | 0hPa | 0V | 00:00:00 | 00:00:00 | 00:00:00 | |
| LZ4TU-5 | 2026-09-01 23:39:56 | 44.72622 | 20.60947 | 93° | 47km/h | 8476m | 3.5m/s | -28.8°C | 6.8% | 0hPa | 0V | 00:00:00 | 00:00:00 | 00:00:00 | |
| LZ4TU-5 | 2026-09-01 23:39:50 | 44.72623 | 20.60842 | 87° | 62km/h | 8444m | 6.2m/s | -28.6°C | 6.8% | 0hPa | 0V | 00:00:00 | 00:00:00 | 00:00:00 | |
| LZ4TU-5 | 2026-09-01 23:38:17 | 44.72880 | 20.58923 | 95° | 57km/h | 7924m | 7.2m/s | -25.6°C | 7.7% | 0hPa | 0V | 00:00:00 | 00:00:00 | 00:00:00 | |
| LZ4TU-5 | 2026-09-01 23:38:12 | 44.72893 | 20.58802 | 97° | 75km/h | 7895m | 5.6m/s | -25.4°C | 7.6% | 0hPa | 0V | 00:00:00 | 00:00:00 | 00:00:00 | |
| LZ4TU-5 | 2026-09-01 23:36:45 | 44.73203 | 20.56943 | 98° | 57km/h | 7448m | 4.8m/s | -22.8°C | 15.4% | 0hPa | 0V | 00:00:00 | 00:00:00 | 00:00:00 | |
| LZ4TU-5 | 2026-09-01 23:36:40 | 44.73227 | 20.56847 | 120° | 62km/h | 7426m | 4.4m/s | -22.7°C | 15.6% | 0hPa | 0V | 00:00:00 | 00:00:00 | 00:00:00 | |
| LZ4TU-5 | 2026-09-01 23:35:22 | 44.73596 | 20.55092 | 112° | 82km/h | 7033m | 5.5m/s | -19.2°C | 16.6% | 0hPa | 0V | 00:00:00 | 00:00:00 | 00:00:00 | |
| LZ4TU-5 | 2026-09-01 23:35:17 | 44.73634 | 20.54971 | 116° | 75km/h | 7009m | 6.3m/s | -19.0°C | 16.5% | 0hPa | 0V | 00:00:00 | 00:00:00 | 00:00:00 | |
| LZ4TU-5 | 2026-09-01 23:33:57 | 44.73990 | 20.53009 | 97° | 66km/h | 6581m | 5.8m/s | -14.9°C | 13.6% | 0hPa | 0V | 00:00:00 | 00:00:00 | 00:00:00 | |
| LZ4TU-5 | 2026-09-01 23:33:52 | 44.73987 | 20.52862 | 90° | 78km/h | 6556m | 4.4m/s | -14.7°C | 12.0% | 0hPa | 0V | 00:00:00 | 00:00:00 | 00:00:00 | |
| LZ4TU-5 | 2026-09-01 23:32:39 | 44.74189 | 20.51132 | 86° | 75km/h | 6141m | 5.6m/s | -12.6°C | 16.3% | 0hPa | 0V | 00:00:00 | 00:00:00 | 00:00:00 | |
| LZ4TU-5 | 2026-09-01 23:32:34 | 44.74204 | 20.51019 | 95° | 55km/h | 6111m | 7.6m/s | -12.4°C | 16.2% | 0hPa | 0V | 00:00:00 | 00:00:00 | 00:00:00 |